sensor_id;sensor_type;location;lat;lon;timestamp;P1;durP1;ratioP1;P2;durP2;ratioP2
6614;SDS011;3343;42.896;23.912;2023-04-25T00:00:54;1.73;;;1.40;;
6614;SDS011;3343;42.896;23.912;2023-04-25T00:03:21;1.63;;;1.43;;
6614;SDS011;3343;42.896;23.912;2023-04-25T00:05:50;2.27;;;1.40;;
6614;SDS011;3343;42.896;23.912;2023-04-25T00:08:17;1.93;;;1.60;;
6614;SDS011;3343;42.896;23.912;2023-04-25T00:10:43;2.50;;;2.10;;
6614;SDS011;3343;42.896;23.912;2023-04-25T00:13:10;2.90;;;2.40;;
6614;SDS011;3343;42.896;23.912;2023-04-25T00:15:37;3.30;;;1.90;;
6614;SDS011;3343;42.896;23.912;2023-04-25T00:18:07;2.77;;;2.17;;
6614;SDS011;3343;42.896;23.912;2023-04-25T00:20:35;1.97;;;1.77;;
6614;SDS011;3343;42.896;23.912;2023-04-25T00:23:01;2.93;;;2.00;;
6614;SDS011;3343;42.896;23.912;2023-04-25T00:25:28;3.07;;;2.00;;
6614;SDS011;3343;42.896;23.912;2023-04-25T00:27:55;3.13;;;2.30;;
6614;SDS011;3343;42.896;23.912;2023-04-25T00:30:21;3.63;;;2.13;;
6614;SDS011;3343;42.896;23.912;2023-04-25T00:32:48;3.70;;;2.20;;
6614;SDS011;3343;42.896;23.912;2023-04-25T00:35:17;3.63;;;2.30;;
6614;SDS011;3343;42.896;23.912;2023-04-25T00:37:43;3.17;;;2.00;;
6614;SDS011;3343;42.896;23.912;2023-04-25T00:40:10;2.20;;;2.00;;
6614;SDS011;3343;42.896;23.912;2023-04-25T00:42:37;3.37;;;2.07;;
6614;SDS011;3343;42.896;23.912;2023-04-25T00:45:05;3.77;;;1.80;;
6614;SDS011;3343;42.896;23.912;2023-04-25T00:47:33;2.37;;;1.70;;
6614;SDS011;3343;42.896;23.912;2023-04-25T00:50:02;1.93;;;1.70;;
6614;SDS011;3343;42.896;23.912;2023-04-25T00:52:30;2.60;;;1.77;;
6614;SDS011;3343;42.896;23.912;2023-04-25T00:54:57;3.93;;;2.47;;
6614;SDS011;3343;42.896;23.912;2023-04-25T00:57:24;2.77;;;1.90;;
6614;SDS011;3343;42.896;23.912;2023-04-25T00:59:51;2.47;;;1.90;;
6614;SDS011;3343;42.896;23.912;2023-04-25T01:02:19;1.80;;;1.60;;
6614;SDS011;3343;42.896;23.912;2023-04-25T01:04:47;1.40;;;1.30;;
6614;SDS011;3343;42.896;23.912;2023-04-25T01:07:14;1.60;;;1.40;;
6614;SDS011;3343;42.896;23.912;2023-04-25T01:09:42;1.43;;;1.33;;
6614;SDS011;3343;42.896;23.912;2023-04-25T01:12:09;2.03;;;1.43;;
6614;SDS011;3343;42.896;23.912;2023-04-25T01:14:36;1.33;;;1.20;;
6614;SDS011;3343;42.896;23.912;2023-04-25T01:17:03;1.73;;;1.50;;
6614;SDS011;3343;42.896;23.912;2023-04-25T01:19:29;1.73;;;1.23;;
6614;SDS011;3343;42.896;23.912;2023-04-25T01:21:58;1.70;;;1.40;;
6614;SDS011;3343;42.896;23.912;2023-04-25T01:24:25;1.40;;;1.30;;
6614;SDS011;3343;42.896;23.912;2023-04-25T01:26:52;1.50;;;1.30;;
6614;SDS011;3343;42.896;23.912;2023-04-25T01:29:21;1.73;;;1.60;;
6614;SDS011;3343;42.896;23.912;2023-04-25T01:31:49;2.10;;;1.90;;
6614;SDS011;3343;42.896;23.912;2023-04-25T01:34:17;1.67;;;1.53;;
6614;SDS011;3343;42.896;23.912;2023-04-25T01:36:44;2.00;;;1.53;;
6614;SDS011;3343;42.896;23.912;2023-04-25T01:39:13;1.90;;;1.63;;
6614;SDS011;3343;42.896;23.912;2023-04-25T01:41:41;2.03;;;1.53;;
6614;SDS011;3343;42.896;23.912;2023-04-25T01:44:08;1.80;;;1.57;;
6614;SDS011;3343;42.896;23.912;2023-04-25T01:46:34;2.53;;;1.57;;
6614;SDS011;3343;42.896;23.912;2023-04-25T01:49:01;1.80;;;1.40;;
6614;SDS011;3343;42.896;23.912;2023-04-25T01:51:28;2.53;;;1.50;;
6614;SDS011;3343;42.896;23.912;2023-04-25T01:53:56;3.47;;;1.53;;
6614;SDS011;3343;42.896;23.912;2023-04-25T01:56:27;2.40;;;1.73;;
6614;SDS011;3343;42.896;23.912;2023-04-25T01:58:56;1.93;;;1.60;;
6614;SDS011;3343;42.896;23.912;2023-04-25T02:01:23;1.77;;;1.53;;
6614;SDS011;3343;42.896;23.912;2023-04-25T02:03:50;2.13;;;1.73;;
6614;SDS011;3343;42.896;23.912;2023-04-25T02:06:17;2.50;;;1.70;;
6614;SDS011;3343;42.896;23.912;2023-04-25T02:08:43;2.60;;;1.80;;
6614;SDS011;3343;42.896;23.912;2023-04-25T02:11:10;1.33;;;1.20;;
6614;SDS011;3343;42.896;23.912;2023-04-25T02:13:38;3.33;;;1.93;;
6614;SDS011;3343;42.896;23.912;2023-04-25T02:16:05;2.37;;;2.03;;
6614;SDS011;3343;42.896;23.912;2023-04-25T02:18:32;1.87;;;1.70;;
6614;SDS011;3343;42.896;23.912;2023-04-25T02:20:59;2.13;;;1.67;;
6614;SDS011;3343;42.896;23.912;2023-04-25T02:23:26;2.30;;;1.50;;
6614;SDS011;3343;42.896;23.912;2023-04-25T02:25:54;2.27;;;1.90;;
6614;SDS011;3343;42.896;23.912;2023-04-25T02:28:23;2.07;;;1.67;;
6614;SDS011;3343;42.896;23.912;2023-04-25T02:30:51;2.87;;;1.80;;
6614;SDS011;3343;42.896;23.912;2023-04-25T02:33:18;1.80;;;1.43;;
6614;SDS011;3343;42.896;23.912;2023-04-25T02:35:46;1.90;;;1.50;;
6614;SDS011;3343;42.896;23.912;2023-04-25T02:38:12;2.70;;;1.63;;
6614;SDS011;3343;42.896;23.912;2023-04-25T02:40:39;2.13;;;1.50;;
6614;SDS011;3343;42.896;23.912;2023-04-25T02:43:06;1.53;;;1.33;;
6614;SDS011;3343;42.896;23.912;2023-04-25T02:45:33;1.90;;;1.70;;
6614;SDS011;3343;42.896;23.912;2023-04-25T02:48:01;2.27;;;1.63;;
6614;SDS011;3343;42.896;23.912;2023-04-25T02:50:28;2.07;;;1.70;;
6614;SDS011;3343;42.896;23.912;2023-04-25T02:52:55;2.13;;;1.80;;
6614;SDS011;3343;42.896;23.912;2023-04-25T02:55:22;1.67;;;1.57;;
6614;SDS011;3343;42.896;23.912;2023-04-25T02:57:48;1.87;;;1.50;;
6614;SDS011;3343;42.896;23.912;2023-04-25T03:00:15;2.47;;;1.60;;
6614;SDS011;3343;42.896;23.912;2023-04-25T03:02:42;1.67;;;1.57;;
6614;SDS011;3343;42.896;23.912;2023-04-25T03:05:10;1.90;;;1.60;;
6614;SDS011;3343;42.896;23.912;2023-04-25T03:07:37;2.47;;;1.63;;
6614;SDS011;3343;42.896;23.912;2023-04-25T03:10:05;5.40;;;1.87;;
6614;SDS011;3343;42.896;23.912;2023-04-25T03:12:32;1.77;;;1.60;;
6614;SDS011;3343;42.896;23.912;2023-04-25T03:14:58;23.97;;;8.37;;
6614;SDS011;3343;42.896;23.912;2023-04-25T03:17:25;3.60;;;3.00;;
6614;SDS011;3343;42.896;23.912;2023-04-25T03:19:52;4.07;;;2.23;;
6614;SDS011;3343;42.896;23.912;2023-04-25T03:22:20;2.73;;;1.57;;
6614;SDS011;3343;42.896;23.912;2023-04-25T03:24:47;2.80;;;1.70;;
6614;SDS011;3343;42.896;23.912;2023-04-25T03:27:14;2.10;;;1.90;;
6614;SDS011;3343;42.896;23.912;2023-04-25T03:29:41;1.83;;;1.73;;
6614;SDS011;3343;42.896;23.912;2023-04-25T03:32:07;1.83;;;1.60;;
6614;SDS011;3343;42.896;23.912;2023-04-25T03:34:34;2.03;;;1.60;;
6614;SDS011;3343;42.896;23.912;2023-04-25T03:37:01;2.30;;;1.73;;
6614;SDS011;3343;42.896;23.912;2023-04-25T03:39:30;1.60;;;1.40;;
6614;SDS011;3343;42.896;23.912;2023-04-25T03:41:56;3.73;;;1.87;;
6614;SDS011;3343;42.896;23.912;2023-04-25T03:44:23;2.00;;;1.70;;
6614;SDS011;3343;42.896;23.912;2023-04-25T03:46:50;2.17;;;1.80;;
6614;SDS011;3343;42.896;23.912;2023-04-25T03:49:17;2.63;;;1.87;;
6614;SDS011;3343;42.896;23.912;2023-04-25T03:51:43;1.43;;;1.33;;
6614;SDS011;3343;42.896;23.912;2023-04-25T03:54:10;2.50;;;2.10;;
6614;SDS011;3343;42.896;23.912;2023-04-25T03:56:38;2.93;;;2.40;;
6614;SDS011;3343;42.896;23.912;2023-04-25T03:59:05;4.63;;;2.47;;
6614;SDS011;3343;42.896;23.912;2023-04-25T04:01:32;2.93;;;2.03;;
6614;SDS011;3343;42.896;23.912;2023-04-25T04:03:59;4.53;;;2.90;;
6614;SDS011;3343;42.896;23.912;2023-04-25T04:06:26;3.50;;;2.30;;
6614;SDS011;3343;42.896;23.912;2023-04-25T04:08:53;3.43;;;2.07;;
6614;SDS011;3343;42.896;23.912;2023-04-25T04:11:20;3.70;;;1.83;;
6614;SDS011;3343;42.896;23.912;2023-04-25T04:13:48;3.17;;;2.27;;
6614;SDS011;3343;42.896;23.912;2023-04-25T04:16:15;2.77;;;2.13;;
6614;SDS011;3343;42.896;23.912;2023-04-25T04:18:42;2.33;;;2.10;;
6614;SDS011;3343;42.896;23.912;2023-04-25T04:21:08;3.30;;;2.50;;
6614;SDS011;3343;42.896;23.912;2023-04-25T04:23:35;4.67;;;2.80;;
6614;SDS011;3343;42.896;23.912;2023-04-25T04:26:02;2.83;;;2.27;;
6614;SDS011;3343;42.896;23.912;2023-04-25T04:28:30;3.63;;;2.60;;
6614;SDS011;3343;42.896;23.912;2023-04-25T04:30:58;3.43;;;2.50;;
6614;SDS011;3343;42.896;23.912;2023-04-25T04:33:26;5.77;;;4.20;;
6614;SDS011;3343;42.896;23.912;2023-04-25T04:35:53;4.43;;;3.30;;
6614;SDS011;3343;42.896;23.912;2023-04-25T04:38:20;6.13;;;3.50;;
6614;SDS011;3343;42.896;23.912;2023-04-25T04:40:47;4.40;;;3.30;;
6614;SDS011;3343;42.896;23.912;2023-04-25T04:43:15;4.93;;;3.53;;
6614;SDS011;3343;42.896;23.912;2023-04-25T04:45:43;3.13;;;2.30;;
6614;SDS011;3343;42.896;23.912;2023-04-25T04:48:12;4.17;;;2.80;;
6614;SDS011;3343;42.896;23.912;2023-04-25T04:50:39;3.83;;;2.90;;
6614;SDS011;3343;42.896;23.912;2023-04-25T04:53:06;4.00;;;2.87;;
6614;SDS011;3343;42.896;23.912;2023-04-25T04:55:33;4.10;;;3.03;;
6614;SDS011;3343;42.896;23.912;2023-04-25T04:58:00;4.80;;;3.50;;
6614;SDS011;3343;42.896;23.912;2023-04-25T05:00:26;5.80;;;3.53;;
6614;SDS011;3343;42.896;23.912;2023-04-25T05:02:54;7.33;;;3.90;;
6614;SDS011;3343;42.896;23.912;2023-04-25T05:05:23;4.83;;;3.37;;
6614;SDS011;3343;42.896;23.912;2023-04-25T05:07:50;4.13;;;3.00;;
6614;SDS011;3343;42.896;23.912;2023-04-25T05:10:16;4.73;;;3.53;;
6614;SDS011;3343;42.896;23.912;2023-04-25T05:12:43;4.80;;;2.80;;
6614;SDS011;3343;42.896;23.912;2023-04-25T05:15:10;4.93;;;3.53;;
6614;SDS011;3343;42.896;23.912;2023-04-25T05:17:37;6.77;;;3.03;;
6614;SDS011;3343;42.896;23.912;2023-04-25T05:20:05;7.10;;;3.37;;
6614;SDS011;3343;42.896;23.912;2023-04-25T05:22:35;4.80;;;3.00;;
6614;SDS011;3343;42.896;23.912;2023-04-25T05:25:02;5.17;;;3.30;;
6614;SDS011;3343;42.896;23.912;2023-04-25T05:27:29;2.37;;;2.03;;
6614;SDS011;3343;42.896;23.912;2023-04-25T05:29:56;3.60;;;2.60;;
6614;SDS011;3343;42.896;23.912;2023-04-25T05:32:23;4.23;;;2.90;;
6614;SDS011;3343;42.896;23.912;2023-04-25T05:34:50;3.47;;;2.63;;
6614;SDS011;3343;42.896;23.912;2023-04-25T05:37:16;3.97;;;2.70;;
6614;SDS011;3343;42.896;23.912;2023-04-25T05:39:44;4.33;;;2.87;;
6614;SDS011;3343;42.896;23.912;2023-04-25T05:42:11;3.63;;;2.50;;
6614;SDS011;3343;42.896;23.912;2023-04-25T05:44:38;4.60;;;2.90;;
6614;SDS011;3343;42.896;23.912;2023-04-25T05:47:05;3.60;;;2.50;;
6614;SDS011;3343;42.896;23.912;2023-04-25T05:49:32;4.00;;;2.77;;
6614;SDS011;3343;42.896;23.912;2023-04-25T05:51:58;4.40;;;2.53;;
6614;SDS011;3343;42.896;23.912;2023-04-25T05:54:25;4.63;;;2.60;;
6614;SDS011;3343;42.896;23.912;2023-04-25T05:56:53;3.17;;;2.53;;
6614;SDS011;3343;42.896;23.912;2023-04-25T05:59:20;4.00;;;2.37;;
6614;SDS011;3343;42.896;23.912;2023-04-25T06:01:46;3.47;;;2.63;;
6614;SDS011;3343;42.896;23.912;2023-04-25T06:04:13;3.90;;;2.63;;
6614;SDS011;3343;42.896;23.912;2023-04-25T06:06:40;3.23;;;2.50;;
6614;SDS011;3343;42.896;23.912;2023-04-25T06:09:06;5.87;;;2.87;;
6614;SDS011;3343;42.896;23.912;2023-04-25T06:11:33;3.47;;;2.63;;
6614;SDS011;3343;42.896;23.912;2023-04-25T06:14:01;2.77;;;2.40;;
6614;SDS011;3343;42.896;23.912;2023-04-25T06:16:28;4.37;;;2.53;;
6614;SDS011;3343;42.896;23.912;2023-04-25T06:18:55;3.40;;;2.57;;
6614;SDS011;3343;42.896;23.912;2023-04-25T06:21:22;4.00;;;2.83;;
6614;SDS011;3343;42.896;23.912;2023-04-25T06:23:48;3.87;;;2.57;;
6614;SDS011;3343;42.896;23.912;2023-04-25T06:26:15;3.30;;;2.47;;
6614;SDS011;3343;42.896;23.912;2023-04-25T06:28:42;2.97;;;2.07;;
6614;SDS011;3343;42.896;23.912;2023-04-25T06:31:10;3.20;;;2.57;;
6614;SDS011;3343;42.896;23.912;2023-04-25T06:33:36;3.87;;;2.93;;
6614;SDS011;3343;42.896;23.912;2023-04-25T06:36:03;3.23;;;2.40;;
6614;SDS011;3343;42.896;23.912;2023-04-25T06:38:30;2.90;;;2.40;;
6614;SDS011;3343;42.896;23.912;2023-04-25T06:40:57;4.07;;;3.00;;
6614;SDS011;3343;42.896;23.912;2023-04-25T06:43:23;3.70;;;2.90;;
6614;SDS011;3343;42.896;23.912;2023-04-25T06:45:50;3.00;;;2.50;;
6614;SDS011;3343;42.896;23.912;2023-04-25T06:48:18;3.00;;;2.50;;
6614;SDS011;3343;42.896;23.912;2023-04-25T06:50:45;2.87;;;2.40;;
6614;SDS011;3343;42.896;23.912;2023-04-25T06:53:12;3.33;;;2.50;;
6614;SDS011;3343;42.896;23.912;2023-04-25T06:55:39;3.10;;;2.63;;
6614;SDS011;3343;42.896;23.912;2023-04-25T06:58:05;2.27;;;1.97;;
6614;SDS011;3343;42.896;23.912;2023-04-25T07:00:32;2.77;;;2.17;;
6614;SDS011;3343;42.896;23.912;2023-04-25T07:02:59;2.83;;;2.50;;
6614;SDS011;3343;42.896;23.912;2023-04-25T07:05:27;2.60;;;2.10;;
6614;SDS011;3343;42.896;23.912;2023-04-25T07:07:54;4.10;;;2.53;;
6614;SDS011;3343;42.896;23.912;2023-04-25T07:10:21;2.50;;;2.30;;
6614;SDS011;3343;42.896;23.912;2023-04-25T07:12:48;4.07;;;2.60;;
6614;SDS011;3343;42.896;23.912;2023-04-25T07:15:14;2.97;;;2.27;;
6614;SDS011;3343;42.896;23.912;2023-04-25T07:17:41;2.63;;;2.43;;
6614;SDS011;3343;42.896;23.912;2023-04-25T07:20:08;2.43;;;2.23;;
6614;SDS011;3343;42.896;23.912;2023-04-25T07:22:37;2.50;;;2.17;;
6614;SDS011;3343;42.896;23.912;2023-04-25T07:25:04;3.17;;;2.10;;
6614;SDS011;3343;42.896;23.912;2023-04-25T07:27:32;3.00;;;2.57;;
6614;SDS011;3343;42.896;23.912;2023-04-25T07:29:58;3.10;;;2.57;;
6614;SDS011;3343;42.896;23.912;2023-04-25T07:32:25;4.17;;;2.30;;
6614;SDS011;3343;42.896;23.912;2023-04-25T07:34:52;3.00;;;2.03;;
6614;SDS011;3343;42.896;23.912;2023-04-25T07:37:19;3.53;;;2.50;;
6614;SDS011;3343;42.896;23.912;2023-04-25T07:39:47;2.90;;;2.17;;
6614;SDS011;3343;42.896;23.912;2023-04-25T07:42:14;2.90;;;2.30;;
6614;SDS011;3343;42.896;23.912;2023-04-25T07:44:41;3.53;;;2.43;;
6614;SDS011;3343;42.896;23.912;2023-04-25T07:47:08;4.97;;;3.10;;
6614;SDS011;3343;42.896;23.912;2023-04-25T07:49:35;3.77;;;2.53;;
6614;SDS011;3343;42.896;23.912;2023-04-25T07:52:02;3.50;;;2.83;;
6614;SDS011;3343;42.896;23.912;2023-04-25T07:54:31;4.10;;;2.57;;
6614;SDS011;3343;42.896;23.912;2023-04-25T07:57:00;2.27;;;2.07;;
6614;SDS011;3343;42.896;23.912;2023-04-25T07:59:27;2.77;;;2.23;;
6614;SDS011;3343;42.896;23.912;2023-04-25T08:01:54;3.87;;;2.30;;
6614;SDS011;3343;42.896;23.912;2023-04-25T08:04:22;2.37;;;2.17;;
6614;SDS011;3343;42.896;23.912;2023-04-25T08:06:49;2.50;;;2.23;;
6614;SDS011;3343;42.896;23.912;2023-04-25T08:09:16;2.40;;;2.20;;
6614;SDS011;3343;42.896;23.912;2023-04-25T08:11:43;3.23;;;2.50;;
6614;SDS011;3343;42.896;23.912;2023-04-25T08:14:11;2.83;;;2.27;;
6614;SDS011;3343;42.896;23.912;2023-04-25T08:16:38;2.97;;;2.37;;
6614;SDS011;3343;42.896;23.912;2023-04-25T08:19:05;2.87;;;2.17;;
6614;SDS011;3343;42.896;23.912;2023-04-25T08:21:32;4.00;;;2.30;;
6614;SDS011;3343;42.896;23.912;2023-04-25T08:23:59;2.67;;;2.17;;
6614;SDS011;3343;42.896;23.912;2023-04-25T08:26:26;1.60;;;1.50;;
6614;SDS011;3343;42.896;23.912;2023-04-25T08:28:54;1.97;;;1.53;;
6614;SDS011;3343;42.896;23.912;2023-04-25T08:31:22;1.97;;;1.67;;
6614;SDS011;3343;42.896;23.912;2023-04-25T08:33:49;3.50;;;1.60;;
6614;SDS011;3343;42.896;23.912;2023-04-25T08:36:17;1.93;;;1.73;;
6614;SDS011;3343;42.896;23.912;2023-04-25T08:38:44;2.80;;;1.70;;
6614;SDS011;3343;42.896;23.912;2023-04-25T08:41:11;3.77;;;1.63;;
6614;SDS011;3343;42.896;23.912;2023-04-25T08:43:41;1.90;;;1.70;;
6614;SDS011;3343;42.896;23.912;2023-04-25T08:46:09;1.77;;;1.67;;
6614;SDS011;3343;42.896;23.912;2023-04-25T08:48:39;1.80;;;1.70;;
6614;SDS011;3343;42.896;23.912;2023-04-25T08:51:08;4.10;;;1.60;;
6614;SDS011;3343;42.896;23.912;2023-04-25T08:53:41;2.13;;;1.67;;
6614;SDS011;3343;42.896;23.912;2023-04-25T08:56:09;1.80;;;1.63;;
6614;SDS011;3343;42.896;23.912;2023-04-25T08:58:39;1.90;;;1.70;;
6614;SDS011;3343;42.896;23.912;2023-04-25T09:01:07;2.03;;;1.48;;
6614;SDS011;3343;42.896;23.912;2023-04-25T09:03:34;3.90;;;1.75;;
6614;SDS011;3343;42.896;23.912;2023-04-25T09:06:03;1.97;;;1.77;;
6614;SDS011;3343;42.896;23.912;2023-04-25T09:08:30;3.50;;;2.40;;
6614;SDS011;3343;42.896;23.912;2023-04-25T09:10:57;2.97;;;2.40;;
6614;SDS011;3343;42.896;23.912;2023-04-25T09:13:25;4.37;;;3.20;;
6614;SDS011;3343;42.896;23.912;2023-04-25T09:15:53;4.10;;;2.80;;
6614;SDS011;3343;42.896;23.912;2023-04-25T09:18:22;3.97;;;2.93;;
6614;SDS011;3343;42.896;23.912;2023-04-25T09:20:51;3.80;;;2.80;;
6614;SDS011;3343;42.896;23.912;2023-04-25T09:23:20;6.40;;;4.33;;
6614;SDS011;3343;42.896;23.912;2023-04-25T09:25:48;4.57;;;3.67;;
6614;SDS011;3343;42.896;23.912;2023-04-25T09:28:16;5.57;;;3.50;;
6614;SDS011;3343;42.896;23.912;2023-04-25T09:30:43;4.23;;;2.47;;
6614;SDS011;3343;42.896;23.912;2023-04-25T09:33:12;2.47;;;2.17;;
6614;SDS011;3343;42.896;23.912;2023-04-25T09:35:40;2.30;;;2.10;;
6614;SDS011;3343;42.896;23.912;2023-04-25T09:38:10;3.00;;;2.40;;
6614;SDS011;3343;42.896;23.912;2023-04-25T09:40:42;3.20;;;2.57;;
6614;SDS011;3343;42.896;23.912;2023-04-25T09:43:10;4.90;;;3.13;;
6614;SDS011;3343;42.896;23.912;2023-04-25T09:45:43;3.97;;;2.97;;
6614;SDS011;3343;42.896;23.912;2023-04-25T09:48:15;4.37;;;3.43;;
6614;SDS011;3343;42.896;23.912;2023-04-25T09:50:43;3.53;;;2.57;;
6614;SDS011;3343;42.896;23.912;2023-04-25T09:53:10;3.33;;;2.83;;
6614;SDS011;3343;42.896;23.912;2023-04-25T09:55:37;7.20;;;5.23;;
6614;SDS011;3343;42.896;23.912;2023-04-25T09:58:06;3.53;;;2.87;;
6614;SDS011;3343;42.896;23.912;2023-04-25T10:00:35;3.10;;;2.37;;
6614;SDS011;3343;42.896;23.912;2023-04-25T10:03:04;2.43;;;2.00;;
6614;SDS011;3343;42.896;23.912;2023-04-25T10:05:32;2.73;;;2.20;;
6614;SDS011;3343;42.896;23.912;2023-04-25T10:08:03;4.47;;;3.83;;
6614;SDS011;3343;42.896;23.912;2023-04-25T10:10:31;3.43;;;2.30;;
6614;SDS011;3343;42.896;23.912;2023-04-25T10:13:05;3.97;;;3.43;;
6614;SDS011;3343;42.896;23.912;2023-04-25T10:15:34;4.57;;;2.40;;
6614;SDS011;3343;42.896;23.912;2023-04-25T10:18:02;2.27;;;1.77;;
6614;SDS011;3343;42.896;23.912;2023-04-25T10:20:29;7.37;;;6.57;;
6614;SDS011;3343;42.896;23.912;2023-04-25T10:22:58;3.20;;;2.20;;
6614;SDS011;3343;42.896;23.912;2023-04-25T10:25:33;3.40;;;2.50;;
6614;SDS011;3343;42.896;23.912;2023-04-25T10:28:00;2.97;;;2.43;;
6614;SDS011;3343;42.896;23.912;2023-04-25T10:30:31;2.47;;;2.20;;
6614;SDS011;3343;42.896;23.912;2023-04-25T10:32:58;2.60;;;2.30;;
6614;SDS011;3343;42.896;23.912;2023-04-25T10:35:25;3.33;;;1.90;;
6614;SDS011;3343;42.896;23.912;2023-04-25T10:38:02;1.93;;;1.60;;
6614;SDS011;3343;42.896;23.912;2023-04-25T10:40:30;2.07;;;1.87;;
6614;SDS011;3343;42.896;23.912;2023-04-25T10:43:32;1.63;;;1.50;;
6614;SDS011;3343;42.896;23.912;2023-04-25T10:46:02;1.17;;;1.07;;
6614;SDS011;3343;42.896;23.912;2023-04-25T10:48:43;2.80;;;1.40;;
6614;SDS011;3343;42.896;23.912;2023-04-25T10:51:15;1.25;;;1.08;;
6614;SDS011;3343;42.896;23.912;2023-04-25T10:53:44;1.02;;;0.93;;
6614;SDS011;3343;42.896;23.912;2023-04-25T10:56:11;1.27;;;1.17;;
6614;SDS011;3343;42.896;23.912;2023-04-25T10:58:43;1.77;;;1.23;;
6614;SDS011;3343;42.896;23.912;2023-04-25T11:01:13;2.15;;;1.00;;
6614;SDS011;3343;42.896;23.912;2023-04-25T11:03:41;1.50;;;1.10;;
6614;SDS011;3343;42.896;23.912;2023-04-25T11:06:11;1.20;;;1.10;;
6614;SDS011;3343;42.896;23.912;2023-04-25T11:08:47;0.90;;;0.85;;
6614;SDS011;3343;42.896;23.912;2023-04-25T11:11:16;1.48;;;1.08;;
6614;SDS011;3343;42.896;23.912;2023-04-25T11:13:43;1.98;;;1.88;;
6614;SDS011;3343;42.896;23.912;2023-04-25T11:16:10;1.20;;;1.10;;
6614;SDS011;3343;42.896;23.912;2023-04-25T11:18:40;1.20;;;1.10;;
6614;SDS011;3343;42.896;23.912;2023-04-25T11:21:07;1.25;;;1.15;;
6614;SDS011;3343;42.896;23.912;2023-04-25T11:23:34;1.00;;;1.00;;
6614;SDS011;3343;42.896;23.912;2023-04-25T11:26:01;1.10;;;1.00;;
6614;SDS011;3343;42.896;23.912;2023-04-25T11:28:29;1.63;;;1.13;;
6614;SDS011;3343;42.896;23.912;2023-04-25T11:30:56;1.20;;;1.10;;
6614;SDS011;3343;42.896;23.912;2023-04-25T11:33:23;1.33;;;1.03;;
6614;SDS011;3343;42.896;23.912;2023-04-25T11:35:51;1.27;;;1.03;;
6614;SDS011;3343;42.896;23.912;2023-04-25T11:38:20;1.23;;;1.13;;
6614;SDS011;3343;42.896;23.912;2023-04-25T11:40:49;1.00;;;1.00;;
6614;SDS011;3343;42.896;23.912;2023-04-25T11:43:17;2.43;;;1.67;;
6614;SDS011;3343;42.896;23.912;2023-04-25T11:45:46;1.37;;;1.27;;
6614;SDS011;3343;42.896;23.912;2023-04-25T11:48:14;1.43;;;1.33;;
6614;SDS011;3343;42.896;23.912;2023-04-25T11:50:41;1.43;;;1.33;;
6614;SDS011;3343;42.896;23.912;2023-04-25T11:53:09;1.10;;;1.10;;
6614;SDS011;3343;42.896;23.912;2023-04-25T11:55:36;2.47;;;1.60;;
6614;SDS011;3343;42.896;23.912;2023-04-25T11:58:05;1.80;;;1.70;;
6614;SDS011;3343;42.896;23.912;2023-04-25T12:00:33;3.00;;;2.13;;
6614;SDS011;3343;42.896;23.912;2023-04-25T12:03:01;2.20;;;1.60;;
6614;SDS011;3343;42.896;23.912;2023-04-25T12:05:29;1.63;;;1.53;;
6614;SDS011;3343;42.896;23.912;2023-04-25T12:07:58;1.73;;;1.60;;
6614;SDS011;3343;42.896;23.912;2023-04-25T12:10:38;2.13;;;1.40;;
6614;SDS011;3343;42.896;23.912;2023-04-25T12:13:19;3.73;;;1.13;;
6614;SDS011;3343;42.896;23.912;2023-04-25T12:15:47;2.30;;;2.10;;
6614;SDS011;3343;42.896;23.912;2023-04-25T12:18:14;2.30;;;1.40;;
6614;SDS011;3343;42.896;23.912;2023-04-25T12:20:44;1.60;;;1.23;;
6614;SDS011;3343;42.896;23.912;2023-04-25T12:23:13;2.70;;;1.33;;
6614;SDS011;3343;42.896;23.912;2023-04-25T12:25:40;1.40;;;1.30;;
6614;SDS011;3343;42.896;23.912;2023-04-25T12:28:09;1.40;;;1.30;;
6614;SDS011;3343;42.896;23.912;2023-04-25T12:30:52;1.23;;;1.13;;
6614;SDS011;3343;42.896;23.912;2023-04-25T12:33:23;1.13;;;1.00;;
6614;SDS011;3343;42.896;23.912;2023-04-25T12:35:51;1.80;;;1.43;;
6614;SDS011;3343;42.896;23.912;2023-04-25T12:38:22;0.95;;;0.95;;
6614;SDS011;3343;42.896;23.912;2023-04-25T12:40:50;0.90;;;0.90;;
6614;SDS011;3343;42.896;23.912;2023-04-25T12:43:17;1.20;;;1.10;;
6614;SDS011;3343;42.896;23.912;2023-04-25T12:45:44;1.50;;;1.40;;
6614;SDS011;3343;42.896;23.912;2023-04-25T12:48:11;1.75;;;1.50;;
6614;SDS011;3343;42.896;23.912;2023-04-25T12:50:38;1.70;;;1.15;;
6614;SDS011;3343;42.896;23.912;2023-04-25T12:53:04;1.60;;;1.03;;
6614;SDS011;3343;42.896;23.912;2023-04-25T12:55:33;1.10;;;1.00;;
6614;SDS011;3343;42.896;23.912;2023-04-25T12:58:00;0.90;;;0.90;;
6614;SDS011;3343;42.896;23.912;2023-04-25T13:00:28;1.10;;;1.00;;
6614;SDS011;3343;42.896;23.912;2023-04-25T13:02:55;0.80;;;0.80;;
6614;SDS011;3343;42.896;23.912;2023-04-25T13:05:22;2.57;;;1.00;;
6614;SDS011;3343;42.896;23.912;2023-04-25T13:07:48;1.20;;;1.10;;
6614;SDS011;3343;42.896;23.912;2023-04-25T13:10:16;1.07;;;0.90;;
6614;SDS011;3343;42.896;23.912;2023-04-25T13:12:44;2.27;;;1.20;;
6614;SDS011;3343;42.896;23.912;2023-04-25T13:15:12;0.90;;;0.90;;
6614;SDS011;3343;42.896;23.912;2023-04-25T13:17:40;0.70;;;0.70;;
6614;SDS011;3343;42.896;23.912;2023-04-25T13:20:08;0.70;;;0.70;;
6614;SDS011;3343;42.896;23.912;2023-04-25T13:22:35;1.03;;;0.83;;
6614;SDS011;3343;42.896;23.912;2023-04-25T13:25:03;4.30;;;0.80;;
6614;SDS011;3343;42.896;23.912;2023-04-25T13:27:31;0.90;;;0.80;;
6614;SDS011;3343;42.896;23.912;2023-04-25T13:30:01;0.80;;;0.80;;
6614;SDS011;3343;42.896;23.912;2023-04-25T13:32:32;1.00;;;0.90;;
6614;SDS011;3343;42.896;23.912;2023-04-25T13:34:59;0.80;;;0.80;;
6614;SDS011;3343;42.896;23.912;2023-04-25T13:37:26;0.80;;;0.80;;
6614;SDS011;3343;42.896;23.912;2023-04-25T13:39:53;1.60;;;1.30;;
6614;SDS011;3343;42.896;23.912;2023-04-25T13:42:20;3.03;;;1.40;;
6614;SDS011;3343;42.896;23.912;2023-04-25T13:44:47;1.23;;;1.13;;
6614;SDS011;3343;42.896;23.912;2023-04-25T13:47:15;1.77;;;1.50;;
6614;SDS011;3343;42.896;23.912;2023-04-25T13:49:42;1.83;;;1.13;;
6614;SDS011;3343;42.896;23.912;2023-04-25T13:52:09;1.10;;;1.00;;
6614;SDS011;3343;42.896;23.912;2023-04-25T13:54:35;2.90;;;1.83;;
6614;SDS011;3343;42.896;23.912;2023-04-25T13:57:02;2.77;;;1.70;;
6614;SDS011;3343;42.896;23.912;2023-04-25T13:59:30;2.37;;;1.60;;
6614;SDS011;3343;42.896;23.912;2023-04-25T14:01:57;1.63;;;1.50;;
6614;SDS011;3343;42.896;23.912;2023-04-25T14:04:25;1.73;;;1.10;;
6614;SDS011;3343;42.896;23.912;2023-04-25T14:06:52;0.93;;;0.93;;
6614;SDS011;3343;42.896;23.912;2023-04-25T14:09:20;1.40;;;1.30;;
6614;SDS011;3343;42.896;23.912;2023-04-25T14:11:51;3.10;;;1.33;;
6614;SDS011;3343;42.896;23.912;2023-04-25T14:14:18;0.90;;;0.90;;
6614;SDS011;3343;42.896;23.912;2023-04-25T14:16:46;0.93;;;0.90;;
6614;SDS011;3343;42.896;23.912;2023-04-25T14:19:14;1.07;;;0.97;;
6614;SDS011;3343;42.896;23.912;2023-04-25T14:21:57;1.53;;;1.10;;
6614;SDS011;3343;42.896;23.912;2023-04-25T14:24:33;1.43;;;1.07;;
6614;SDS011;3343;42.896;23.912;2023-04-25T14:27:04;3.43;;;2.13;;
6614;SDS011;3343;42.896;23.912;2023-04-25T14:29:31;1.30;;;1.20;;
6614;SDS011;3343;42.896;23.912;2023-04-25T14:31:58;1.20;;;1.10;;
6614;SDS011;3343;42.896;23.912;2023-04-25T14:34:25;3.47;;;1.60;;
6614;SDS011;3343;42.896;23.912;2023-04-25T14:36:53;3.73;;;1.73;;
6614;SDS011;3343;42.896;23.912;2023-04-25T14:39:20;4.17;;;1.97;;
6614;SDS011;3343;42.896;23.912;2023-04-25T14:41:47;1.30;;;1.10;;
6614;SDS011;3343;42.896;23.912;2023-04-25T14:44:14;2.17;;;1.03;;
6614;SDS011;3343;42.896;23.912;2023-04-25T14:46:41;1.30;;;1.20;;
6614;SDS011;3343;42.896;23.912;2023-04-25T14:49:08;2.27;;;1.37;;
6614;SDS011;3343;42.896;23.912;2023-04-25T14:51:35;9.07;;;4.43;;
6614;SDS011;3343;42.896;23.912;2023-04-25T14:54:03;3.23;;;2.33;;
6614;SDS011;3343;42.896;23.912;2023-04-25T14:56:30;9.30;;;4.17;;
6614;SDS011;3343;42.896;23.912;2023-04-25T14:58:57;1.30;;;1.20;;
6614;SDS011;3343;42.896;23.912;2023-04-25T15:01:23;0.90;;;0.90;;
6614;SDS011;3343;42.896;23.912;2023-04-25T15:03:51;3.53;;;2.37;;